createdAt,value
2019-01-25T00:00:11.053Z,50.77
2019-01-25T00:02:40.205Z,53.23
2019-01-25T00:05:09.356Z,51.63
2019-01-25T00:07:39.736Z,55.17
2019-01-25T00:10:08.915Z,53.87
2019-01-25T00:12:38.092Z,54.70
2019-01-25T00:15:07.297Z,58.90
2019-01-25T00:17:37.723Z,50.77
2019-01-25T00:20:07.154Z,50.63
2019-01-25T00:22:36.300Z,58.33
2019-01-25T00:25:05.502Z,61.27
2019-01-25T00:27:34.704Z,53.17
2019-01-25T00:30:04.588Z,52.13
2019-01-25T00:32:33.717Z,53.47
2019-01-25T00:35:02.867Z,53.20
2019-01-25T00:37:32.056Z,53.43
2019-01-25T00:40:06.152Z,46.23
2019-01-25T00:42:30.401Z,62.27
2019-01-25T00:44:59.545Z,56.37
2019-01-25T00:47:28.745Z,48.37
2019-01-25T00:49:57.911Z,42.77
2019-01-25T00:52:27.069Z,46.60
2019-01-25T00:54:56.229Z,56.67
2019-01-25T00:57:25.366Z,52.67
2019-01-25T00:59:54.517Z,53.70
2019-01-25T01:02:23.675Z,52.37
2019-01-25T01:04:52.881Z,54.70
2019-01-25T01:07:22.043Z,58.13
2019-01-25T01:09:51.206Z,60.37
2019-01-25T01:12:20.416Z,61.40
2019-01-25T01:14:49.541Z,51.90
2019-01-25T01:17:18.704Z,48.60
2019-01-25T01:19:47.844Z,43.93
2019-01-25T01:22:17.022Z,42.60
2019-01-25T01:24:46.159Z,44.97
2019-01-25T01:27:15.314Z,44.77
2019-01-25T01:29:44.446Z,50.60
2019-01-25T01:32:13.593Z,47.80
2019-01-25T01:34:42.796Z,46.00
2019-01-25T01:37:11.978Z,44.07
2019-01-25T01:39:41.111Z,51.13
2019-01-25T01:42:10.311Z,48.70
2019-01-25T01:44:39.457Z,49.93
2019-01-25T01:47:08.582Z,51.77
2019-01-25T01:49:37.833Z,46.60
2019-01-25T01:52:06.997Z,53.47
2019-01-25T01:54:36.141Z,53.17
2019-01-25T01:57:05.279Z,47.63
2019-01-25T01:59:34.477Z,46.43
2019-01-25T02:02:03.617Z,52.53
2019-01-25T02:04:32.766Z,52.30
2019-01-25T02:07:01.936Z,46.10
2019-01-25T02:09:31.109Z,53.23
2019-01-25T02:12:00.238Z,58.13
2019-01-25T02:14:29.394Z,55.77
2019-01-25T02:16:58.570Z,76.40
2019-01-25T02:19:27.733Z,71.40
2019-01-25T02:21:56.981Z,80.37
2019-01-25T02:24:26.192Z,72.23
2019-01-25T02:26:56.578Z,68.67
2019-01-25T02:29:24.515Z,66.93
2019-01-25T02:31:53.671Z,66.33
2019-01-25T02:34:22.865Z,61.93
2019-01-25T02:36:52.065Z,57.07
2019-01-25T02:39:21.194Z,62.20
2019-01-25T02:41:50.431Z,63.53
2019-01-25T02:44:19.557Z,64.60
2019-01-25T02:46:48.788Z,64.33
2019-01-25T02:49:17.966Z,64.17
2019-01-25T02:51:47.119Z,64.40
2019-01-25T02:54:16.277Z,58.73
2019-01-25T02:56:45.477Z,61.13
2019-01-25T02:59:14.623Z,60.07
2019-01-25T03:01:43.751Z,72.83
2019-01-25T03:04:12.907Z,75.87
2019-01-25T03:06:42.034Z,60.97
2019-01-25T03:09:11.218Z,63.90
2019-01-25T03:11:40.373Z,67.60
2019-01-25T03:14:09.517Z,63.23
2019-01-25T03:16:38.688Z,64.40
2019-01-25T03:19:07.849Z,51.23
2019-01-25T03:21:36.982Z,57.37
2019-01-25T03:24:06.141Z,60.77
2019-01-25T03:26:35.277Z,59.20
2019-01-25T03:29:04.409Z,60.40
2019-01-25T03:31:33.571Z,71.43
2019-01-25T03:34:02.732Z,56.70
2019-01-25T03:36:31.890Z,69.77
2019-01-25T03:39:01.098Z,66.73
2019-01-25T03:41:30.225Z,61.60
2019-01-25T03:43:59.383Z,64.50
2019-01-25T03:46:28.569Z,58.40
2019-01-25T03:48:57.760Z,57.23
2019-01-25T03:51:26.929Z,66.03
2019-01-25T03:53:56.100Z,67.27
2019-01-25T03:56:25.238Z,63.80
2019-01-25T03:58:54.373Z,66.33
2019-01-25T04:01:23.518Z,63.50
2019-01-25T04:03:52.791Z,61.70
2019-01-25T04:06:21.944Z,58.70
2019-01-25T04:08:51.089Z,59.97
2019-01-25T04:11:20.279Z,59.40
2019-01-25T04:13:49.453Z,59.37
2019-01-25T04:16:18.569Z,63.60
2019-01-25T04:18:47.741Z,61.47
2019-01-25T04:21:16.879Z,65.03
2019-01-25T04:23:46.040Z,63.10
2019-01-25T04:26:15.276Z,69.47
2019-01-25T04:28:44.413Z,69.20
2019-01-25T04:31:13.542Z,72.73
2019-01-25T04:33:42.690Z,72.73
2019-01-25T04:36:11.827Z,89.60
2019-01-25T04:38:40.996Z,86.13
2019-01-25T04:41:11.774Z,78.43
2019-01-25T04:43:39.289Z,88.47
2019-01-25T04:46:08.450Z,88.80
2019-01-25T04:48:37.591Z,104.20
2019-01-25T04:51:09.128Z,83.23
2019-01-25T04:53:38.283Z,86.73
2019-01-25T04:56:07.425Z,83.43
2019-01-25T04:58:36.590Z,111.23
2019-01-25T05:01:06.561Z,103.27
2019-01-25T05:03:35.701Z,92.70
2019-01-25T05:06:05.253Z,82.27
2019-01-25T05:08:34.425Z,84.87
2019-01-25T05:11:03.582Z,73.80
2019-01-25T05:13:32.740Z,67.53
2019-01-25T05:16:01.901Z,81.30
2019-01-25T05:18:32.363Z,99.43
2019-01-25T05:21:01.627Z,117.30
2019-01-25T05:23:30.926Z,118.37
2019-01-25T05:26:00.326Z,121.03
2019-01-25T05:28:29.557Z,130.77
2019-01-25T05:31:00.769Z,123.23
2019-01-25T05:33:29.910Z,131.87
2019-01-25T05:35:59.063Z,95.67
2019-01-25T05:38:28.211Z,139.50
2019-01-25T05:40:57.404Z,143.47
2019-01-25T05:43:26.588Z,209.87
2019-01-25T05:45:55.755Z,194.97
2019-01-25T05:48:28.507Z,192.83
2019-01-25T05:51:00.246Z,99.23
2019-01-25T05:53:29.442Z,100.83
2019-01-25T05:55:58.661Z,69.30
2019-01-25T05:58:27.853Z,77.10
2019-01-25T06:00:57.028Z,74.97
2019-01-25T06:03:26.209Z,70.27
2019-01-25T06:05:59.226Z,77.07
2019-01-25T06:08:31.169Z,82.67
2019-01-25T06:11:02.055Z,70.40
2019-01-25T06:13:31.210Z,58.80
2019-01-25T06:16:00.397Z,48.23
2019-01-25T06:18:29.625Z,62.13
2019-01-25T06:21:00.016Z,71.10
2019-01-25T06:23:29.158Z,68.17
2019-01-25T06:25:59.955Z,68.13
2019-01-25T06:28:29.122Z,72.20
2019-01-25T06:31:00.739Z,70.33
2019-01-25T06:33:29.885Z,78.00
2019-01-25T06:36:00.333Z,89.00
2019-01-25T06:38:30.940Z,76.57
2019-01-25T06:41:00.065Z,70.53
2019-01-25T06:43:29.226Z,79.10
2019-01-25T06:45:58.392Z,71.23
2019-01-25T06:48:27.513Z,64.97
2019-01-25T06:50:56.708Z,66.50
2019-01-25T06:53:25.883Z,80.33
2019-01-25T06:55:55.052Z,83.67
2019-01-25T06:58:29.809Z,69.30
2019-01-25T07:01:05.571Z,69.63
2019-01-25T07:03:34.710Z,65.77
2019-01-25T07:06:05.004Z,51.23
2019-01-25T07:08:35.517Z,47.53
2019-01-25T07:11:04.794Z,39.50
2019-01-25T07:13:33.929Z,36.73
2019-01-25T07:16:03.222Z,33.97
2019-01-25T07:18:32.364Z,35.10
2019-01-25T07:21:02.804Z,35.67
2019-01-25T07:23:31.929Z,35.20
2019-01-25T07:26:01.141Z,36.70
2019-01-25T07:28:30.361Z,35.97
2019-01-25T07:30:59.667Z,39.30
2019-01-25T07:33:28.710Z,44.17
2019-01-25T07:35:57.904Z,46.33
2019-01-25T07:38:27.085Z,45.83
2019-01-25T07:40:56.320Z,45.40
2019-01-25T07:43:25.386Z,48.70
2019-01-25T07:45:54.629Z,50.73
2019-01-25T07:48:26.313Z,44.53
2019-01-25T07:50:55.491Z,48.37
2019-01-25T07:53:24.700Z,43.90
2019-01-25T07:55:55.048Z,44.00
2019-01-25T07:58:24.217Z,49.13
2019-01-25T08:00:53.429Z,40.40
2019-01-25T08:03:22.692Z,43.27
2019-01-25T08:05:51.856Z,51.27
2019-01-25T08:08:21.020Z,43.57
2019-01-25T08:10:50.164Z,37.60
2019-01-25T08:13:19.386Z,54.90
2019-01-25T08:15:48.724Z,54.23
2019-01-25T08:18:17.849Z,39.43
2019-01-25T08:20:47.007Z,61.60
2019-01-25T08:23:16.171Z,51.37
2019-01-25T08:25:45.442Z,42.37
2019-01-25T08:28:14.599Z,44.43
2019-01-25T08:30:43.745Z,41.53
2019-01-25T08:33:14.213Z,57.20
2019-01-25T08:35:43.473Z,57.67
2019-01-25T08:38:12.621Z,72.90
2019-01-25T08:40:43.035Z,61.43
2019-01-25T08:43:12.237Z,81.43
2019-01-25T08:45:41.382Z,54.10
2019-01-25T08:48:11.753Z,50.30
2019-01-25T08:50:40.957Z,48.77
2019-01-25T08:53:10.144Z,56.63
2019-01-25T08:55:39.303Z,46.93
2019-01-25T08:58:09.781Z,39.40
2019-01-25T09:00:38.926Z,39.97
2019-01-25T09:03:08.065Z,44.00
2019-01-25T09:05:39.717Z,45.20
2019-01-25T09:08:08.864Z,52.67
2019-01-25T09:10:38.050Z,40.00
2019-01-25T09:13:07.204Z,45.50
2019-01-25T09:15:37.630Z,41.83
2019-01-25T09:18:08.261Z,42.80
2019-01-25T09:20:37.455Z,52.43
2019-01-25T09:23:06.669Z,50.17
2019-01-25T09:25:35.807Z,43.40
2019-01-25T09:28:04.997Z,38.57
2019-01-25T09:30:35.576Z,36.03
2019-01-25T09:33:04.729Z,39.50
2019-01-25T09:35:33.910Z,40.10
2019-01-25T09:38:03.066Z,34.17
2019-01-25T09:40:33.498Z,32.67
2019-01-25T09:43:02.641Z,28.73
2019-01-25T09:45:31.781Z,25.33
2019-01-25T09:48:00.989Z,34.43
2019-01-25T09:50:30.127Z,24.13
2019-01-25T09:52:59.355Z,27.40
2019-01-25T09:55:28.530Z,23.60
2019-01-25T09:57:59.929Z,19.73
2019-01-25T10:00:30.582Z,26.50
2019-01-25T10:02:59.735Z,22.00
2019-01-25T10:05:30.185Z,24.50
2019-01-25T10:07:59.393Z,23.97
2019-01-25T10:10:28.651Z,28.90
2019-01-25T10:13:00.244Z,20.20
2019-01-25T10:15:29.385Z,23.07
2019-01-25T10:17:58.523Z,19.33
2019-01-25T10:20:27.681Z,31.63
2019-01-25T10:22:56.825Z,23.53
2019-01-25T10:25:25.960Z,23.33
2019-01-25T10:27:55.519Z,33.93
2019-01-25T10:30:24.669Z,27.97
2019-01-25T10:32:53.862Z,33.27
2019-01-25T10:35:23.079Z,24.83
2019-01-25T10:37:52.235Z,25.33
2019-01-25T10:40:21.462Z,34.30
2019-01-25T10:42:53.159Z,27.77
2019-01-25T10:45:22.181Z,32.20
2019-01-25T10:47:51.324Z,30.80
2019-01-25T10:50:21.789Z,29.63
2019-01-25T10:52:52.164Z,20.80
2019-01-25T10:55:21.315Z,23.40
2019-01-25T10:57:50.436Z,23.03
2019-01-25T11:00:19.618Z,25.70
2019-01-25T11:02:48.829Z,31.27
2019-01-25T11:05:19.025Z,30.13
2019-01-25T11:07:48.309Z,34.23
2019-01-25T11:10:17.746Z,28.37
2019-01-25T11:12:46.941Z,22.20
2019-01-25T11:15:16.940Z,20.93
2019-01-25T11:17:46.199Z,20.93
2019-01-25T11:20:16.151Z,24.60
2019-01-25T11:22:45.337Z,22.00
2019-01-25T11:25:16.974Z,19.70
2019-01-25T11:27:47.426Z,20.37
2019-01-25T11:30:16.992Z,18.17
2019-01-25T11:32:46.198Z,21.20
2019-01-25T11:35:15.348Z,20.17
2019-01-25T11:37:44.528Z,22.63
2019-01-25T11:40:16.304Z,20.13
2019-01-25T11:42:45.484Z,21.03
2019-01-25T11:45:17.125Z,20.33
2019-01-25T11:47:46.323Z,21.43
2019-01-25T11:50:15.657Z,23.80
2019-01-25T11:52:44.829Z,30.33
2019-01-25T11:55:15.358Z,27.17
2019-01-25T11:57:44.552Z,25.90
2019-01-25T12:00:16.455Z,23.87
2019-01-25T12:02:45.631Z,28.33
2019-01-25T12:05:16.481Z,26.37
2019-01-25T12:07:45.670Z,25.60
2019-01-25T12:10:15.194Z,26.87
2019-01-25T12:12:45.697Z,24.27
2019-01-25T12:15:15.562Z,25.53
2019-01-25T12:17:46.020Z,24.47
2019-01-25T12:20:16.469Z,27.73
2019-01-25T12:22:45.620Z,27.77
2019-01-25T12:25:14.768Z,31.90
2019-01-25T12:27:43.900Z,27.47
2019-01-25T12:30:15.992Z,26.37
2019-01-25T12:32:45.121Z,25.27
2019-01-25T12:35:14.269Z,27.83
2019-01-25T12:37:44.729Z,32.43
2019-01-25T12:40:13.895Z,27.00
2019-01-25T12:42:43.051Z,27.40
2019-01-25T12:45:15.717Z,30.17
2019-01-25T12:47:44.884Z,29.30
2019-01-25T12:50:18.154Z,28.53
2019-01-25T12:52:47.350Z,26.23
2019-01-25T12:55:16.489Z,32.37
2019-01-25T12:57:45.942Z,28.63
2019-01-25T13:00:15.455Z,36.80
2019-01-25T13:02:44.704Z,42.23
2019-01-25T13:05:14.567Z,36.60
2019-01-25T13:07:44.942Z,35.37
2019-01-25T13:10:14.361Z,27.57
2019-01-25T13:12:46.385Z,30.60
2019-01-25T13:15:15.583Z,29.37
2019-01-25T13:17:44.729Z,30.47
2019-01-25T13:20:15.054Z,36.33
2019-01-25T13:22:46.681Z,40.43
2019-01-25T13:25:15.881Z,38.63
2019-01-25T13:27:45.133Z,41.03
2019-01-25T13:30:15.506Z,39.50
2019-01-25T13:32:44.650Z,40.77
2019-01-25T13:35:13.891Z,43.53
2019-01-25T13:37:45.220Z,36.57
2019-01-25T13:40:15.290Z,43.57
2019-01-25T13:42:44.482Z,34.27
2019-01-25T13:45:15.602Z,39.57
2019-01-25T13:47:44.779Z,36.70
2019-01-25T13:50:14.906Z,41.53
2019-01-25T13:52:44.108Z,39.77
2019-01-25T13:55:13.539Z,42.23
2019-01-25T13:57:42.693Z,37.03
2019-01-25T14:00:16.919Z,39.43
2019-01-25T14:02:46.089Z,45.97
2019-01-25T14:05:15.299Z,51.03
2019-01-25T14:07:49.797Z,45.13
2019-01-25T14:10:22.436Z,39.90
2019-01-25T14:12:51.595Z,42.73
2019-01-25T14:15:20.760Z,40.00
2019-01-25T14:17:49.906Z,41.03
2019-01-25T14:20:23.420Z,40.57
2019-01-25T14:22:51.656Z,43.63
2019-01-25T14:25:20.955Z,43.57
2019-01-25T14:27:50.104Z,38.50
2019-01-25T14:30:23.259Z,47.07
2019-01-25T14:32:52.415Z,43.80
2019-01-25T14:35:21.655Z,45.07
2019-01-25T14:37:52.552Z,41.37
2019-01-25T14:40:21.213Z,42.87
2019-01-25T14:42:50.359Z,42.37
2019-01-25T14:45:19.574Z,38.03
2019-01-25T14:47:51.217Z,40.17
2019-01-25T14:50:21.073Z,39.37
2019-01-25T14:52:50.290Z,44.37
2019-01-25T14:55:19.503Z,46.97
2019-01-25T14:57:48.675Z,43.57
2019-01-25T15:00:17.846Z,41.13
2019-01-25T15:02:46.965Z,42.03
2019-01-25T15:05:16.796Z,41.60
2019-01-25T15:07:46.000Z,39.67
2019-01-25T15:10:16.145Z,39.73
2019-01-25T15:12:45.362Z,39.03
2019-01-25T15:15:14.613Z,46.53
2019-01-25T15:17:43.746Z,43.87
2019-01-25T15:20:14.501Z,42.87
2019-01-25T15:22:46.136Z,35.83
2019-01-25T15:25:15.276Z,42.40
2019-01-25T15:27:44.430Z,46.73
2019-01-25T15:30:16.175Z,41.00
2019-01-25T15:32:45.300Z,43.23
2019-01-25T15:35:14.885Z,45.20
2019-01-25T15:37:44.149Z,44.23
2019-01-25T15:40:13.657Z,42.90
2019-01-25T15:42:44.117Z,40.50
2019-01-25T15:45:13.624Z,40.70
2019-01-25T15:47:42.774Z,47.50
2019-01-25T15:50:16.004Z,46.13
2019-01-25T15:52:45.155Z,43.77
2019-01-25T15:55:14.320Z,40.40
2019-01-25T15:57:44.727Z,44.80
2019-01-25T16:00:14.969Z,45.33
2019-01-25T16:02:44.094Z,50.27
2019-01-25T16:05:13.983Z,51.07
2019-01-25T16:07:44.385Z,56.37
2019-01-25T16:10:14.436Z,55.43
2019-01-25T16:12:43.574Z,46.73
2019-01-25T16:15:13.845Z,53.80
2019-01-25T16:17:45.481Z,55.87
2019-01-25T16:20:14.990Z,48.23
2019-01-25T16:22:44.152Z,45.13
2019-01-25T16:25:14.607Z,44.23
2019-01-25T16:27:43.780Z,45.10
2019-01-25T16:30:15.296Z,43.47
2019-01-25T16:32:44.475Z,48.80
2019-01-25T16:35:13.686Z,47.63
2019-01-25T16:37:42.850Z,46.53
2019-01-25T16:40:15.733Z,54.03
2019-01-25T16:42:43.428Z,53.20
2019-01-25T16:45:14.173Z,57.87
2019-01-25T16:47:43.350Z,48.73
2019-01-25T16:50:12.540Z,56.90
2019-01-25T16:52:41.733Z,51.43
2019-01-25T16:55:11.927Z,56.17
2019-01-25T16:57:41.128Z,55.47
2019-01-25T17:00:14.941Z,53.43
2019-01-25T17:02:44.111Z,69.10
2019-01-25T17:05:13.246Z,89.37
2019-01-25T17:07:42.417Z,77.67
2019-01-25T17:10:11.574Z,65.90
2019-01-25T17:12:40.783Z,56.77
2019-01-25T17:15:10.026Z,62.33
2019-01-25T17:17:39.376Z,61.07
2019-01-25T17:20:08.507Z,56.13
2019-01-25T17:22:37.637Z,60.57
2019-01-25T17:25:07.277Z,58.50
2019-01-25T17:27:36.460Z,63.50
2019-01-25T17:30:06.990Z,62.43
2019-01-25T17:32:36.143Z,57.70
2019-01-25T17:35:05.981Z,57.30
2019-01-25T17:37:35.130Z,58.73
2019-01-25T17:40:05.830Z,60.40
2019-01-25T17:42:35.008Z,61.07
2019-01-25T17:45:05.811Z,58.17
2019-01-25T17:47:34.962Z,58.17
2019-01-25T17:50:04.552Z,59.60
2019-01-25T17:52:33.686Z,64.53
2019-01-25T17:55:02.814Z,56.20
2019-01-25T17:57:31.970Z,66.03
2019-01-25T18:00:01.243Z,63.23
2019-01-25T18:02:31.532Z,63.40
2019-01-25T18:05:00.800Z,68.83
2019-01-25T18:07:29.949Z,61.07
2019-01-25T18:09:59.097Z,61.03
2019-01-25T18:12:28.280Z,60.70
2019-01-25T18:14:57.441Z,63.77
2019-01-25T18:17:28.879Z,61.60
2019-01-25T18:19:58.913Z,52.10
2019-01-25T18:22:28.062Z,56.17
2019-01-25T18:24:57.193Z,63.80
2019-01-25T18:27:26.340Z,59.50
2019-01-25T18:29:58.121Z,59.67
2019-01-25T18:32:27.262Z,65.13
2019-01-25T18:34:57.554Z,67.53
2019-01-25T18:37:26.744Z,61.50
2019-01-25T18:39:56.097Z,56.93
2019-01-25T18:42:25.046Z,54.07
2019-01-25T18:44:56.873Z,54.03
2019-01-25T18:47:25.391Z,60.77
2019-01-25T18:49:54.544Z,53.63
2019-01-25T18:52:24.940Z,54.83
2019-01-25T18:54:54.093Z,52.47
2019-01-25T18:57:23.267Z,61.97
2019-01-25T18:59:52.471Z,57.80
2019-01-25T19:02:21.702Z,56.83
2019-01-25T19:04:50.857Z,58.43
2019-01-25T19:07:20.021Z,56.70
2019-01-25T19:09:49.876Z,56.43
2019-01-25T19:12:19.006Z,55.40
2019-01-25T19:14:48.194Z,51.97
2019-01-25T19:17:18.153Z,47.83
2019-01-25T19:19:47.355Z,51.40
2019-01-25T19:22:16.493Z,51.63
2019-01-25T19:24:46.335Z,57.00
2019-01-25T19:27:15.583Z,59.00
2019-01-25T19:29:44.727Z,50.90
2019-01-25T19:32:15.150Z,56.60
2019-01-25T19:34:44.315Z,51.97
2019-01-25T19:37:13.448Z,55.43
2019-01-25T19:39:42.578Z,62.47
2019-01-25T19:42:13.676Z,62.53
2019-01-25T19:44:44.042Z,65.00
2019-01-25T19:47:13.725Z,58.13
2019-01-25T19:49:44.101Z,54.33
2019-01-25T19:52:13.227Z,63.40
2019-01-25T19:54:42.378Z,53.17
2019-01-25T19:57:12.797Z,54.13
2019-01-25T19:59:44.505Z,59.20
2019-01-25T20:02:13.668Z,55.57
2019-01-25T20:04:44.111Z,51.73
2019-01-25T20:07:13.241Z,55.43
2019-01-25T20:09:43.746Z,52.90
2019-01-25T20:12:13.013Z,60.63
2019-01-25T20:14:43.370Z,57.70
2019-01-25T20:17:12.581Z,54.10
2019-01-25T20:19:41.749Z,67.83
2019-01-25T20:22:10.951Z,58.93
2019-01-25T20:24:40.112Z,62.10
2019-01-25T20:27:09.247Z,63.63
2019-01-25T20:29:40.917Z,61.20
2019-01-25T20:32:10.090Z,64.93
2019-01-25T20:34:39.263Z,64.60
2019-01-25T20:37:08.393Z,60.77
2019-01-25T20:39:37.618Z,65.27
2019-01-25T20:42:06.779Z,66.20
2019-01-25T20:44:35.898Z,67.70
2019-01-25T20:47:05.048Z,64.27
2019-01-25T20:49:34.209Z,67.30
2019-01-25T20:52:04.728Z,81.93
2019-01-25T20:54:33.956Z,65.03
2019-01-25T20:57:03.095Z,69.70
2019-01-25T20:59:33.533Z,61.67
2019-01-25T21:02:05.388Z,63.47
2019-01-25T21:04:34.592Z,66.50
2019-01-25T21:07:03.762Z,65.70
2019-01-25T21:09:33.037Z,68.00
2019-01-25T21:12:03.541Z,67.23
2019-01-25T21:14:33.945Z,65.17
2019-01-25T21:17:03.113Z,62.20
2019-01-25T21:19:34.823Z,67.57
2019-01-25T21:22:03.985Z,66.23
2019-01-25T21:24:34.429Z,69.03
2019-01-25T21:27:03.584Z,67.43
2019-01-25T21:29:32.737Z,63.80
2019-01-25T21:32:01.929Z,64.50
2019-01-25T21:34:31.117Z,69.80
2019-01-25T21:37:00.301Z,66.53
2019-01-25T21:39:29.505Z,65.40
2019-01-25T21:41:58.826Z,62.83
2019-01-25T21:44:28.013Z,73.23
2019-01-25T21:46:57.194Z,65.03
2019-01-25T21:49:26.365Z,74.80
2019-01-25T21:51:55.552Z,68.67
2019-01-25T21:54:24.739Z,67.57
2019-01-25T21:56:54.008Z,73.57
2019-01-25T21:59:23.249Z,68.43
2019-01-25T22:01:52.569Z,68.10
2019-01-25T22:04:23.389Z,69.93
2019-01-25T22:06:52.114Z,68.87
2019-01-25T22:09:21.470Z,61.43
2019-01-25T22:11:50.610Z,68.87
2019-01-25T22:14:19.786Z,64.87
2019-01-25T22:16:48.932Z,70.73
2019-01-25T22:19:18.147Z,65.23
2019-01-25T22:21:47.328Z,71.43
2019-01-25T22:24:16.465Z,72.57
2019-01-25T22:26:45.613Z,68.97
2019-01-25T22:29:18.484Z,69.03
2019-01-25T22:31:47.817Z,70.80
2019-01-25T22:34:16.967Z,65.20
2019-01-25T22:36:46.183Z,70.90
2019-01-25T22:39:15.396Z,85.03
2019-01-25T22:41:44.579Z,67.33
2019-01-25T22:44:13.799Z,69.37
2019-01-25T22:46:42.961Z,71.27
2019-01-25T22:49:12.175Z,65.80
2019-01-25T22:51:41.369Z,69.47
2019-01-25T22:54:10.604Z,63.57
2019-01-25T22:56:40.975Z,70.33
2019-01-25T22:59:10.171Z,77.70
2019-01-25T23:01:39.336Z,73.87
2019-01-25T23:04:12.096Z,62.67
2019-01-25T23:06:46.507Z,68.70
2019-01-25T23:09:17.770Z,60.80
2019-01-25T23:11:46.956Z,70.00
2019-01-25T23:14:16.182Z,72.40
2019-01-25T23:16:45.836Z,64.37
2019-01-25T23:19:15.054Z,69.20
2019-01-25T23:21:44.261Z,65.07
2019-01-25T23:24:13.562Z,70.63
2019-01-25T23:26:42.750Z,69.13
2019-01-25T23:29:11.940Z,72.97
2019-01-25T23:31:42.342Z,65.87
2019-01-25T23:34:11.566Z,67.80
2019-01-25T23:36:40.780Z,66.73
2019-01-25T23:39:10.276Z,66.87
2019-01-25T23:41:39.436Z,69.33
2019-01-25T23:44:08.681Z,61.40
2019-01-25T23:46:37.937Z,69.63
2019-01-25T23:49:07.207Z,72.30
2019-01-25T23:51:36.378Z,66.53
2019-01-25T23:54:07.280Z,74.57
2019-01-25T23:56:36.446Z,68.10
2019-01-25T23:59:05.725Z,57.50
